Time;durP1;ratioP1;P1;durP2;ratioP2;P2;SDS_P1;SDS_P2;PMS_P1;PMS_P2;Temp;Humidity;BMP_temperature;BMP_pressure;BME280_temperature;BME280_humidity;BME280_pressure;Samples;Min_cycle;Max_cycle;Signal;HPM_P1;HPM_P2
2022/09/12 00:02:24;;;;;;;14.67;10.73;;;16.30;99.90;;;;;;5075788;28;20172;-70
2022/09/12 00:04:50;;;;;;;12.50;10.83;;;16.30;99.90;;;;;;5075264;28;20561;-70
2022/09/12 00:07:16;;;;;;;12.83;10.57;;;16.40;99.90;;;;;;5074083;28;20223;-70
2022/09/12 00:09:42;;;;;;;12.77;10.87;;;16.40;99.90;;;;;;5075509;28;20222;-70
2022/09/12 00:12:08;;;;;;;14.10;10.93;;;16.40;99.90;;;;;;5075863;28;20260;-70
2022/09/12 00:14:34;;;;;;;14.50;10.77;;;16.40;99.90;;;;;;5075351;28;20255;-70
2022/09/12 00:17:00;;;;;;;16.33;10.93;;;16.40;99.90;;;;;;5075433;28;20591;-70
2022/09/12 00:19:26;;;;;;;11.97;10.87;;;16.50;99.90;;;;;;5075073;28;20259;-70
2022/09/12 00:21:52;;;;;;;14.70;11.27;;;16.50;99.90;;;;;;5075412;28;20172;-70
2022/09/12 00:24:17;;;;;;;14.10;11.00;;;16.50;99.90;;;;;;5074116;28;20180;-70
2022/09/12 00:26:43;;;;;;;11.93;10.70;;;16.50;99.90;;;;;;5075217;28;20214;-70
2022/09/12 00:29:15;;;;;;;15.00;11.10;;;16.40;99.90;;;;;;5075338;28;20230;-70
2022/09/12 00:31:41;;;;;;;15.07;11.10;;;16.40;99.90;;;;;;5075279;28;20631;-70
2022/09/12 00:34:08;;;;;;;15.30;11.03;;;16.40;99.90;;;;;;5074836;28;20171;-70
2022/09/12 00:36:34;;;;;;;15.20;10.40;;;16.40;99.90;;;;;;5075098;28;20179;-69
2022/09/12 00:39:00;;;;;;;12.40;10.73;;;16.40;99.90;;;;;;5073792;28;20207;-69
2022/09/12 00:41:28;;;;;;;11.60;10.53;;;16.30;99.90;;;;;;5075135;28;20572;-69
2022/09/12 00:43:57;;;;;;;13.90;10.40;;;16.10;99.90;;;;;;5075052;28;20272;-70
2022/09/12 00:46:42;;;;;;;11.97;10.87;;;16.00;99.90;;;;;;5073259;28;20196;-70
2022/09/12 00:49:20;;;;;;;12.73;10.40;;;16.00;99.90;;;;;;5074871;28;20156;-70
2022/09/12 00:51:58;;;;;;;14.57;11.13;;;15.90;99.90;;;;;;5074777;28;20168;-69
2022/09/12 00:54:30;;;;;;;16.77;10.37;;;15.90;99.90;;;;;;5073695;28;20169;-69
2022/09/12 00:57:00;;;;;;;11.63;10.33;;;15.90;99.90;;;;;;5074755;28;20247;-69
2022/09/12 00:59:40;;;;;;;12.87;11.47;;;15.80;99.90;;;;;;5074521;28;20239;-69
2022/09/12 01:02:06;;;;;;;13.40;11.67;;;15.90;99.90;;;;;;5074496;28;20204;-69
2022/09/12 01:04:35;;;;;;;12.77;11.10;;;15.90;99.90;;;;;;5074591;28;20208;-70
2022/09/12 01:07:04;;;;;;;12.23;11.00;;;16.00;99.90;;;;;;5074477;28;20204;-70
2022/09/12 01:09:30;;;;;;;12.80;10.83;;;16.00;99.90;;;;;;5074152;28;20283;-70
2022/09/12 01:11:56;;;;;;;13.70;10.97;;;16.10;99.90;;;;;;5074495;28;20600;-70
2022/09/12 01:14:22;;;;;;;11.83;10.60;;;16.00;99.90;;;;;;5074492;28;20649;-70
2022/09/12 01:16:49;;;;;;;12.23;10.77;;;16.00;99.90;;;;;;5073713;28;20224;-70
2022/09/12 01:19:39;;;;;;;18.73;11.90;;;16.00;99.90;;;;;;5074197;28;20628;-70
2022/09/12 01:22:17;;;;;;;14.73;11.00;;;16.00;99.90;;;;;;5074191;28;20172;-70
2022/09/12 01:25:15;;;;;;;12.47;10.90;;;16.00;99.90;;;;;;5074350;28;20259;-70
2022/09/12 01:27:41;;;;;;;12.50;10.53;;;15.90;99.90;;;;;;5074108;28;20215;-68
2022/09/12 01:30:24;;;;;;;16.43;11.03;;;15.80;99.90;;;;;;5073663;28;20247;-69
2022/09/12 01:33:04;;;;;;;14.07;11.33;;;15.80;99.90;;;;;;5074044;28;20199;-68
2022/09/12 01:35:36;;;;;;;13.17;11.57;;;15.80;99.90;;;;;;5074101;28;20643;-68
2022/09/12 01:38:14;;;;;;;13.63;10.90;;;15.80;99.90;;;;;;5073807;28;20168;-69
2022/09/12 01:40:49;;;;;;;13.50;11.03;;;15.70;99.90;;;;;;5072542;28;20173;-69
2022/09/12 01:43:25;;;;;;;13.87;10.57;;;15.70;99.90;;;;;;5072862;28;20180;-70
2022/09/12 01:46:02;;;;;;;13.53;10.43;;;15.70;99.90;;;;;;5073511;28;20164;-70
2022/09/12 01:48:43;;;;;;;13.90;10.40;;;15.60;99.90;;;;;;5073691;28;20631;-69
2022/09/12 01:51:22;;;;;;;13.90;10.77;;;15.60;99.90;;;;;;5073598;28;20707;-69
2022/09/12 01:53:54;;;;;;;12.27;11.07;;;15.60;99.90;;;;;;5073720;28;20168;-70
2022/09/12 01:56:29;;;;;;;14.30;12.73;;;15.60;99.90;;;;;;5072379;28;20169;-68
2022/09/12 01:59:12;;;;;;;13.93;12.10;;;15.80;99.90;;;;;;5073163;28;20168;-68
2022/09/12 02:01:54;;;;;;;15.10;11.70;;;15.80;99.90;;;;;;5072148;28;20191;-69
2022/09/12 02:04:25;;;;;;;15.63;12.07;;;15.80;99.90;;;;;;5072376;28;20172;-70
2022/09/12 02:07:07;;;;;;;15.70;12.40;;;15.70;99.90;;;;;;5073245;28;20208;-70
2022/09/12 02:10:08;;;;;;;18.47;12.30;;;15.70;99.90;;;;;;5073393;28;20164;-68
2022/09/12 02:12:45;;;;;;;14.97;11.83;;;15.70;99.90;;;;;;5031385;28;20185;-69
2022/09/12 02:15:12;;;;;;;17.47;12.37;;;15.60;99.90;;;;;;5030800;28;20229;-70
2022/09/12 02:17:42;;;;;;;15.40;11.80;;;15.60;99.90;;;;;;5031383;28;20170;-70
2022/09/12 02:20:15;;;;;;;16.30;11.40;;;15.50;99.90;;;;;;5031146;28;20177;-70
2022/09/12 02:22:43;;;;;;;16.40;12.00;;;15.50;99.90;;;;;;5030508;28;20185;-69
2022/09/12 02:25:11;;;;;;;13.17;11.77;;;15.40;99.90;;;;;;5031169;28;20181;-70
2022/09/12 02:27:44;;;;;;;14.27;11.40;;;15.30;99.90;;;;;;5031252;28;20292;-70
2022/09/12 02:30:13;;;;;;;12.93;11.57;;;15.30;99.90;;;;;;5031208;28;20174;-69
2022/09/12 02:32:59;;;;;;;16.63;11.43;;;15.30;99.90;;;;;;5031256;28;20664;-69
2022/09/12 02:35:43;;;;;;;19.70;12.20;;;15.30;99.90;;;;;;5031210;28;20174;-69
2022/09/12 02:38:28;;;;;;;13.40;11.77;;;15.30;99.90;;;;;;5030930;28;20657;-69
2022/09/12 02:40:54;;;;;;;16.93;12.07;;;15.30;99.90;;;;;;5030902;28;20176;-70
2022/09/12 02:43:20;;;;;;;18.63;12.63;;;15.30;99.90;;;;;;5030607;28;20264;-69
2022/09/12 02:45:45;;;;;;;16.13;12.97;;;15.30;99.90;;;;;;5031334;28;20201;-70
2022/09/12 02:48:21;;;;;;;18.97;12.10;;;15.20;99.90;;;;;;5038708;28;20187;-70
2022/09/12 02:50:47;;;;;;;18.23;12.23;;;15.20;99.90;;;;;;5071649;28;20187;-70
2022/09/12 02:53:12;;;;;;;23.27;12.53;;;15.10;99.90;;;;;;5071504;28;20172;-70
2022/09/12 02:55:40;;;;;;;19.60;12.27;;;15.10;99.90;;;;;;5072866;28;20223;-69
2022/09/12 02:58:15;;;;;;;24.33;13.10;;;15.10;99.90;;;;;;5072439;28;20168;-70
2022/09/12 03:00:49;;;;;;;18.33;13.10;;;15.10;99.90;;;;;;5072978;28;20616;-70
2022/09/12 03:03:53;;;;;;;22.00;13.43;;;15.10;99.90;;;;;;5072915;28;20176;-70
2022/09/12 03:06:41;;;;;;;25.27;13.13;;;15.10;99.90;;;;;;5066789;28;20245;-70
2022/09/12 03:09:28;;;;;;;24.60;14.07;;;15.20;99.90;;;;;;5071455;28;20184;-70
2022/09/12 03:12:02;;;;;;;20.47;13.13;;;15.20;99.90;;;;;;5072576;28;20678;-69
2022/09/12 03:14:46;;;;;;;18.10;13.03;;;15.10;99.90;;;;;;5072649;28;20171;-69
2022/09/12 03:17:47;;;;;;;20.53;13.43;;;15.10;99.90;;;;;;5072422;28;20184;-69
2022/09/12 03:20:36;;;;;;;20.03;12.83;;;15.00;99.90;;;;;;5072353;28;20164;-69
2022/09/12 03:23:10;;;;;;;16.10;12.83;;;15.00;99.90;;;;;;5072212;28;20165;-69
2022/09/12 03:25:43;;;;;;;16.87;12.87;;;15.00;99.90;;;;;;5072535;28;20165;-69
2022/09/12 03:28:12;;;;;;;21.33;13.80;;;15.00;99.90;;;;;;5072488;28;20264;-68
2022/09/12 03:30:46;;;;;;;15.33;13.53;;;15.00;99.90;;;;;;5072343;28;20172;-70
2022/09/12 03:33:21;;;;;;;20.57;13.80;;;15.00;99.90;;;;;;5074638;28;20172;-70
2022/09/12 03:35:48;;;;;;;19.40;14.13;;;15.10;99.90;;;;;;5076105;28;20636;-68
2022/09/12 03:38:14;;;;;;;18.17;14.57;;;15.10;99.90;;;;;;5075986;28;20175;-68
2022/09/12 03:40:40;;;;;;;18.90;13.30;;;15.20;99.90;;;;;;5075267;28;20271;-69
2022/09/12 03:43:07;;;;;;;15.17;12.50;;;15.20;99.90;;;;;;5075652;28;20180;-68
2022/09/12 03:45:34;;;;;;;17.30;12.77;;;15.30;99.90;;;;;;5075581;28;20192;-69
2022/09/12 03:47:59;;;;;;;13.37;12.07;;;15.30;99.90;;;;;;5075433;28;20307;-69
2022/09/12 03:50:25;;;;;;;16.53;12.90;;;15.20;99.90;;;;;;5075508;28;20185;-69
2022/09/12 03:52:51;;;;;;;15.83;13.00;;;15.20;99.90;;;;;;5075646;28;20531;-69
2022/09/12 03:55:17;;;;;;;15.30;13.17;;;15.30;99.90;;;;;;5074137;28;20183;-69
2022/09/12 03:57:43;;;;;;;15.50;12.40;;;15.20;99.90;;;;;;5075060;28;20179;-69
2022/09/12 04:00:09;;;;;;;15.90;12.63;;;15.30;99.90;;;;;;5076078;28;20176;-69
2022/09/12 04:02:35;;;;;;;13.50;12.20;;;15.40;99.90;;;;;;5075066;28;20176;-69
2022/09/12 04:05:01;;;;;;;15.47;12.43;;;15.40;99.90;;;;;;5075307;28;20660;-70
2022/09/12 04:07:26;;;;;;;13.70;12.30;;;15.50;99.90;;;;;;5075523;28;20204;-70
2022/09/12 04:09:53;;;;;;;16.23;12.37;;;15.50;99.90;;;;;;5074875;28;20177;-69
2022/09/12 04:12:19;;;;;;;16.63;13.07;;;15.60;99.90;;;;;;5074829;28;20254;-70
2022/09/12 04:14:45;;;;;;;15.27;13.10;;;15.60;99.90;;;;;;5074697;28;20160;-69
2022/09/12 04:17:11;;;;;;;15.83;12.67;;;15.60;99.90;;;;;;5074980;28;20180;-69
2022/09/12 04:19:36;;;;;;;15.60;12.93;;;15.60;99.90;;;;;;5075109;28;20696;-69
2022/09/12 04:22:02;;;;;;;19.57;13.70;;;15.70;99.90;;;;;;5075063;28;20172;-69
2022/09/12 04:24:28;;;;;;;14.90;13.40;;;15.70;99.90;;;;;;5074345;28;20168;-69
2022/09/12 04:26:54;;;;;;;18.20;12.63;;;15.70;99.90;;;;;;5074771;28;20208;-69
2022/09/12 04:29:19;;;;;;;17.47;12.77;;;15.70;99.90;;;;;;5075054;28;20245;-68
2022/09/12 04:31:45;;;;;;;20.60;13.27;;;15.70;99.90;;;;;;5074838;28;20172;-69
2022/09/12 04:34:10;;;;;;;19.63;13.30;;;15.70;99.90;;;;;;5074420;28;20168;-69
2022/09/12 04:36:37;;;;;;;21.67;13.60;;;15.70;99.90;;;;;;5075095;28;20175;-69
2022/09/12 04:39:04;;;;;;;21.30;14.23;;;15.60;99.90;;;;;;5074024;28;20176;-69
2022/09/12 04:41:32;;;;;;;21.33;14.27;;;15.60;99.90;;;;;;5074048;28;20492;-69
2022/09/12 04:44:01;;;;;;;22.10;13.27;;;15.60;99.90;;;;;;5074010;28;20173;-68
2022/09/12 04:46:33;;;;;;;20.57;13.87;;;15.50;99.90;;;;;;5074291;28;20192;-69
2022/09/12 04:48:59;;;;;;;27.60;14.90;;;15.50;99.90;;;;;;5074254;28;20172;-69
2022/09/12 04:51:27;;;;;;;25.40;14.37;;;15.50;99.90;;;;;;5073743;28;20496;-69
2022/09/12 04:53:56;;;;;;;18.80;13.50;;;15.50;99.90;;;;;;5073376;28;20200;-70
2022/09/12 04:56:22;;;;;;;18.67;13.57;;;15.40;99.90;;;;;;5074290;28;20176;-69
2022/09/12 04:58:48;;;;;;;20.00;13.87;;;15.50;99.90;;;;;;5073903;28;20252;-70
2022/09/12 05:01:17;;;;;;;20.57;13.93;;;15.50;99.90;;;;;;5074214;28;20533;-69
2022/09/12 05:03:43;;;;;;;20.67;13.10;;;15.50;99.90;;;;;;5073850;28;20181;-70
2022/09/12 05:06:15;;;;;;;21.30;13.60;;;15.40;99.90;;;;;;5073604;28;20204;-70
2022/09/12 05:08:42;;;;;;;18.03;14.10;;;15.30;99.90;;;;;;5073290;28;20165;-70
2022/09/12 05:11:11;;;;;;;19.60;13.77;;;15.30;99.90;;;;;;5073644;28;20524;-69
2022/09/12 05:13:37;;;;;;;25.83;14.30;;;15.30;99.90;;;;;;5073587;28;20173;-69
2022/09/12 05:16:04;;;;;;;23.63;13.97;;;15.20;99.90;;;;;;5073164;28;20278;-70
2022/09/12 05:18:32;;;;;;;22.00;14.20;;;15.20;99.90;;;;;;5073114;28;20169;-69
2022/09/12 05:21:03;;;;;;;22.80;13.63;;;15.20;99.90;;;;;;5072613;28;20238;-69
2022/09/12 05:23:29;;;;;;;19.40;13.60;;;15.20;99.90;;;;;;5072582;28;20604;-69
2022/09/12 05:25:57;;;;;;;19.60;13.87;;;15.20;99.90;;;;;;5072948;28;20581;-69
2022/09/12 05:28:24;;;;;;;21.07;14.43;;;15.20;99.90;;;;;;5071460;28;20169;-69
2022/09/12 05:31:00;;;;;;;15.57;13.43;;;15.30;99.90;;;;;;5073012;28;20171;-70
2022/09/12 05:33:26;;;;;;;22.53;14.03;;;15.30;99.90;;;;;;5072865;28;20642;-69
2022/09/12 05:35:52;;;;;;;23.13;14.40;;;15.30;99.90;;;;;;5072770;28;20259;-69
2022/09/12 05:38:17;;;;;;;23.40;14.17;;;15.40;99.90;;;;;;5071499;28;20173;-69
2022/09/12 05:40:43;;;;;;;21.93;14.57;;;15.40;99.90;;;;;;5072523;28;20187;-71
2022/09/12 05:43:11;;;;;;;29.37;14.97;;;15.40;99.90;;;;;;5072665;28;20580;-68
2022/09/12 05:45:37;;;;;;;28.40;15.00;;;15.60;99.90;;;;;;5072965;28;20180;-69
2022/09/12 05:48:04;;;;;;;32.77;15.30;;;15.70;99.90;;;;;;5071523;28;20243;-69
2022/09/12 05:50:29;;;;;;;22.67;14.13;;;15.80;99.90;;;;;;5072364;28;20754;-70
2022/09/12 05:52:56;;;;;;;21.50;14.30;;;16.00;99.90;;;;;;5071803;28;20254;-69
2022/09/12 05:55:22;;;;;;;36.90;15.37;;;16.20;99.90;;;;;;5072108;28;20647;-69
2022/09/12 05:57:49;;;;;;;23.23;13.43;;;16.30;99.90;;;;;;5071570;28;20173;-69
2022/09/12 06:00:15;;;;;;;23.40;12.93;;;16.60;99.90;;;;;;5071583;28;20169;-70
2022/09/12 06:02:41;;;;;;;18.93;12.97;;;16.90;99.90;;;;;;5071583;28;20176;-69
2022/09/12 06:05:07;;;;;;;17.47;12.47;;;17.20;99.90;;;;;;5071923;28;20188;-69
2022/09/12 06:07:32;;;;;;;20.77;12.70;;;17.30;99.90;;;;;;5071461;28;20240;-69
2022/09/12 06:09:58;;;;;;;22.70;12.87;;;17.50;99.90;;;;;;5071618;28;20200;-70
2022/09/12 06:12:25;;;;;;;17.40;12.40;;;17.70;99.90;;;;;;5072431;28;20182;-69
2022/09/12 06:14:51;;;;;;;26.93;12.67;;;17.90;96.10;;;;;;5071851;28;20219;-70
2022/09/12 06:17:17;;;;;;;26.50;12.45;;;18.70;93.90;;;;;;5071306;28;20191;-70
2022/09/12 06:19:44;;;;;;;23.77;11.95;;;19.90;56.90;;;;;;5070878;28;20200;-70
2022/09/12 06:22:10;;;;;;;19.92;11.45;;;21.30;1.00;;;;;;5071252;28;20219;-72
2022/09/12 06:24:35;;;;;;;18.33;10.70;;;22.70;1.00;;;;;;5071465;28;20648;-71
2022/09/12 06:27:01;;;;;;;22.08;11.73;;;24.30;1.00;;;;;;5071966;28;20306;-71
2022/09/12 06:29:27;;;;;;;13.13;10.82;;;25.60;1.00;;;;;;5071207;28;20167;-71
2022/09/12 06:31:53;;;;;;;11.88;10.65;;;26.30;1.00;;;;;;5070905;28;20176;-73
2022/09/12 06:34:19;;;;;;;14.55;10.30;;;27.30;1.00;;;;;;5070915;28;20237;-73
2022/09/12 06:36:47;;;;;;;17.02;11.75;;;29.10;1.00;;;;;;5071625;28;20651;-74
2022/09/12 06:39:18;;;;;;;11.52;10.02;;;30.40;1.00;;;;;;5071543;28;20172;-73
2022/09/12 06:41:45;;;;;;;20.83;10.73;;;31.40;1.00;;;;;;5071977;28;20195;-73
2022/09/12 06:44:16;;;;;;;11.13;8.20;;;32.60;99.90;;;;;;5015371;28;20238;-74
2022/09/12 06:46:43;;;;;;;6.97;6.35;;;31.80;99.90;;;;;;4983995;28;20302;-73
2022/09/12 06:49:09;;;;;;;6.70;6.00;;;31.60;99.90;;;;;;4997322;28;20233;-73
2022/09/12 06:51:35;;;;;;;6.03;5.57;;;31.80;99.90;;;;;;4980367;28;20635;-73
2022/09/12 06:54:01;;;;;;;6.72;6.18;;;32.60;99.90;;;;;;4978384;28;20262;-73
2022/09/12 06:56:27;;;;;;;8.25;6.32;;;32.50;99.90;;;;;;4980021;28;20203;-71
2022/09/12 06:58:55;;;;;;;7.93;5.50;;;32.90;99.90;;;;;;4988267;28;20632;-74
2022/09/12 07:01:26;;;;;;;7.18;5.47;;;32.90;99.90;;;;;;4956852;28;20260;-73
2022/09/12 07:03:54;;;;;;;6.63;6.00;;;33.30;99.90;;;;;;4987470;28;20174;-73
2022/09/12 07:06:23;;;;;;;8.73;6.90;;;32.80;99.90;;;;;;4981071;28;20191;-72
2022/09/12 07:08:49;;;;;;;6.55;5.82;;;31.10;99.90;;;;;;5057559;28;20196;-73
2022/09/12 07:11:23;;;;;;;9.55;7.30;;;31.50;99.90;;;;;;5062877;28;20627;-73
2022/09/12 07:13:51;;;;;;;8.63;6.47;;;32.20;99.90;;;;;;5023433;28;20185;-74
2022/09/12 07:16:17;;;;;;;7.80;5.72;;;32.80;99.90;;;;;;5074394;28;20987;-73
2022/09/12 07:18:45;;;;;;;6.10;5.50;;;32.30;99.90;;;;;;5074479;28;20181;-73
2022/09/12 07:21:13;;;;;;;6.10;5.28;;;32.50;99.90;;;;;;5006413;28;20168;-74
2022/09/12 07:23:40;;;;;;;6.70;5.03;;;32.00;99.90;;;;;;5049875;28;20175;-74
2022/09/12 07:26:07;;;;;;;7.38;4.90;;;32.50;99.90;;;;;;5033342;28;20200;-73
2022/09/12 07:28:33;;;;;;;5.68;4.88;;;31.80;99.90;;;;;;5018241;28;20248;-74
2022/09/12 07:31:20;;;;;;;4.85;4.35;;;31.70;99.90;;;;;;5060636;28;20172;-75
2022/09/12 07:33:46;;;;;;;4.88;4.43;;;31.80;99.90;;;;;;4991951;28;20203;-74
2022/09/12 07:36:17;;;;;;;18.00;5.10;;;31.40;99.90;;;;;;4992804;28;20191;-74
2022/09/12 07:38:43;;;;;;;51.80;10.45;;;31.70;99.90;;;;;;4993312;28;20175;-74
2022/09/12 07:41:11;;;;;;;5.82;3.95;;;31.70;99.90;;;;;;4992308;28;20172;-74
2022/09/12 07:43:36;;;;;;;4.53;4.03;;;32.20;99.90;;;;;;4991537;28;20164;-73
2022/09/12 07:46:02;;;;;;;6.30;4.10;;;31.90;99.90;;;;;;4992747;28;20661;-74
2022/09/12 07:48:27;;;;;;;6.68;4.72;;;32.50;99.90;;;;;;4991880;28;20715;-74
2022/09/12 07:50:58;;;;;;;5.10;3.47;;;33.10;99.90;;;;;;4992011;28;20297;-73
2022/09/12 07:53:24;;;;;;;3.90;3.50;;;34.20;99.90;;;;;;4992463;28;20220;-73
2022/09/12 07:55:56;;;;;;;5.22;3.92;;;34.60;99.90;;;;;;4992187;28;20181;-73
2022/09/12 07:58:23;;;;;;;3.13;2.88;;;34.60;99.90;;;;;;4992171;28;20176;-74
2022/09/12 08:00:49;;;;;;;3.47;2.92;;;33.70;99.90;;;;;;4991883;28;20199;-75
2022/09/12 08:03:15;;;;;;;3.53;3.25;;;33.70;99.90;;;;;;4991711;28;20171;-72
2022/09/12 08:05:40;;;;;;;7.88;3.58;;;33.50;99.90;;;;;;4992037;28;20189;-75
2022/09/12 08:08:07;;;;;;;3.00;2.80;;;33.20;99.90;;;;;;4992268;28;20210;-72
2022/09/12 08:10:32;;;;;;;3.40;2.95;;;32.20;99.90;;;;;;4991716;28;20178;-73
2022/09/12 08:12:58;;;;;;;3.10;2.90;;;31.30;99.90;;;;;;4991849;28;20639;-72
2022/09/12 08:15:24;;;;;;;3.35;3.00;;;30.20;99.90;;;;;;4992054;28;20234;-72
2022/09/12 08:17:49;;;;;;;3.33;3.13;;;29.50;99.90;;;;;;4991285;28;20175;-73
2022/09/12 08:20:16;;;;;;;3.53;3.22;;;29.10;99.90;;;;;;4989558;28;20299;-73
2022/09/12 08:22:43;;;;;;;3.75;2.95;;;30.30;99.90;;;;;;4988779;28;20274;-74
2022/09/12 08:25:09;;;;;;;6.55;3.50;;;31.10;99.90;;;;;;4981622;28;20213;-73
2022/09/12 08:27:34;;;;;;;3.60;2.90;;;32.00;99.90;;;;;;4980020;28;20243;-73
2022/09/12 08:30:00;;;;;;;3.28;2.92;;;32.00;99.90;;;;;;4979082;28;21355;-73
2022/09/12 08:32:26;;;;;;;3.75;3.25;;;32.10;99.90;;;;;;4976636;28;20184;-74
2022/09/12 08:34:51;;;;;;;3.25;3.05;;;32.00;99.90;;;;;;5028684;28;20613;-74
2022/09/12 08:37:17;;;;;;;5.03;3.17;;;32.10;99.90;;;;;;5072738;28;20180;-73
2022/09/12 08:39:43;;;;;;;3.40;3.10;;;31.80;99.90;;;;;;5002515;28;20652;-74
2022/09/12 08:42:15;;;;;;;3.47;3.28;;;31.90;99.90;;;;;;5002341;28;20172;-74
2022/09/12 08:45:05;;;;;;;4.68;3.63;;;31.90;99.90;;;;;;5042762;28;20195;-74
2022/09/12 08:47:38;;;;;;;4.30;4.00;;;32.50;99.90;;;;;;4990568;28;20250;-73
2022/09/12 08:50:07;;;;;;;3.72;3.22;;;32.90;99.90;;;;;;5000838;28;20190;-74
2022/09/12 08:52:57;;;;;;;4.40;3.20;;;33.10;99.90;;;;;;5047049;28;20171;-75
2022/09/12 08:55:25;;;;;;;5.18;3.20;;;32.00;99.90;;;;;;5046304;28;20173;-73
2022/09/12 08:57:52;;;;;;;5.38;3.45;;;32.80;99.90;;;;;;5002176;28;20631;-74
2022/09/12 09:00:18;;;;;;;3.33;2.90;;;33.60;99.90;;;;;;4971007;28;20176;-73
2022/09/12 09:03:15;;;;;;;6.85;3.72;;;33.10;99.90;;;;;;5009476;28;20191;-74
2022/09/12 09:05:50;;;;;;;3.63;3.20;;;32.90;99.90;;;;;;4982729;28;20192;-74
2022/09/12 09:08:42;;;;;;;4.63;3.17;;;33.90;99.90;;;;;;5007782;28;20278;-74
2022/09/12 09:11:22;;;;;;;4.38;3.50;;;34.70;99.90;;;;;;5072496;28;20176;-75
2022/09/12 09:16:59;;;;;;;4.13;3.72;;;35.70;99.80;;;;;;5026632;28;20233;-75
2022/09/12 09:19:33;;;;;;;4.05;3.20;;;34.90;91.90;;;;;;4990501;28;20187;-74
2022/09/12 09:22:13;;;;;;;3.63;3.08;;;35.20;93.00;;;;;;4997522;28;20189;-74
2022/09/12 09:24:54;;;;;;;3.42;3.10;;;35.30;90.90;;;;;;5043710;28;20201;-74
2022/09/12 09:27:57;;;;;;;6.00;2.63;;;35.90;83.20;;;;;;5043297;28;20223;-73
2022/09/12 09:30:23;;;;;;;2.90;2.70;;;35.70;73.80;;;;;;5065381;28;20180;-72
2022/09/12 09:32:56;;;;;;;4.03;2.97;;;35.20;61.60;;;;;;5037348;28;20691;-73
2022/09/12 09:35:28;;;;;;;3.10;2.50;;;35.70;66.60;;;;;;4990537;28;20171;-72
2022/09/12 09:37:59;;;;;;;2.65;2.47;;;36.20;65.00;;;;;;5058324;28;20174;-72
2022/09/12 09:40:52;;;;;;;2.78;2.42;;;34.10;66.90;;;;;;5012505;28;20176;-74
2022/09/12 09:43:22;;;;;;;2.80;2.50;;;33.50;73.90;;;;;;4989447;28;20192;-75
2022/09/12 09:45:50;;;;;;;3.47;2.53;;;33.90;87.70;;;;;;4987889;28;20250;-75
2022/09/12 09:48:38;;;;;;;2.53;2.33;;;34.00;85.00;;;;;;5071147;28;20548;-74
2022/09/12 09:51:05;;;;;;;2.42;2.10;;;33.30;78.20;;;;;;5071232;28;20267;-74
2022/09/12 09:53:37;;;;;;;2.60;1.92;;;33.40;92.20;;;;;;5012902;28;20195;-74
2022/09/12 09:56:19;;;;;;;3.38;2.33;;;33.90;98.70;;;;;;5067730;28;20176;-75
2022/09/12 09:58:44;;;;;;;2.35;2.08;;;33.80;76.60;;;;;;5072738;28;20176;-74
2022/09/12 10:01:17;;;;;;;2.60;2.40;;;33.00;91.90;;;;;;5072534;28;20174;-75
2022/09/12 10:03:52;;;;;;;2.80;2.58;;;32.90;93.20;;;;;;5072406;28;20259;-74
2022/09/12 10:06:33;;;;;;;3.03;2.72;;;32.70;99.70;;;;;;5071231;28;20286;-74
2022/09/12 10:09:16;;;;;;;3.47;2.80;;;32.20;99.90;;;;;;5072301;28;20218;-75
2022/09/12 10:11:42;;;;;;;3.55;3.25;;;31.60;99.90;;;;;;5072367;28;20652;-74
2022/09/12 10:14:35;;;;;;;2.83;2.50;;;31.50;99.90;;;;;;5071950;28;20184;-74
2022/09/12 10:17:21;;;;;;;3.53;2.00;;;33.30;99.90;;;;;;5071984;28;20220;-74
2022/09/12 10:19:46;;;;;;;2.17;1.98;;;33.30;99.90;;;;;;5070650;28;20210;-75
2022/09/12 10:22:18;;;;;;;2.85;2.20;;;34.00;93.80;;;;;;5071724;28;20160;-75
2022/09/12 10:24:51;;;;;;;2.53;2.30;;;34.80;90.00;;;;;;5072267;28;20187;-75
2022/09/12 10:27:31;;;;;;;3.00;2.80;;;35.10;78.00;;;;;;5071778;28;20200;-73
2022/09/12 10:30:02;;;;;;;3.25;2.55;;;34.70;73.20;;;;;;5072055;28;20172;-74
2022/09/12 10:32:28;;;;;;;2.17;2.05;;;34.40;79.80;;;;;;5072094;28;20255;-73
2022/09/12 10:35:00;;;;;;;4.22;2.50;;;33.10;77.80;;;;;;5072167;28;20172;-72
2022/09/12 10:37:34;;;;;;;2.17;2.08;;;32.80;96.60;;;;;;5071154;28;20204;-73
2022/09/12 10:40:01;;;;;;;2.08;1.98;;;32.50;99.90;;;;;;5071514;28;20243;-72
2022/09/12 10:42:45;;;;;;;2.40;2.20;;;33.10;99.90;;;;;;5071307;28;20172;-72
2022/09/12 10:45:22;;;;;;;2.90;2.13;;;33.40;99.90;;;;;;5071945;28;20168;-72
2022/09/12 10:47:48;;;;;;;1.98;1.70;;;33.60;95.00;;;;;;5071538;28;20691;-73
2022/09/12 10:50:40;;;;;;;4.57;2.80;;;34.00;89.70;;;;;;5070087;28;20636;-74
2022/09/12 10:53:19;;;;;;;1.80;1.70;;;34.90;90.50;;;;;;5066747;28;20184;-73
2022/09/12 10:55:58;;;;;;;5.47;2.30;;;34.70;68.30;;;;;;5070879;28;20164;-73
2022/09/12 10:58:35;;;;;;;3.22;2.00;;;33.80;62.40;;;;;;5071886;28;20174;-73
2022/09/12 11:01:22;;;;;;;5.80;2.83;;;33.60;81.40;;;;;;5070555;28;20199;-73
2022/09/12 11:04:09;;;;;;;2.25;1.90;;;34.30;88.60;;;;;;5071890;28;20176;-73
2022/09/12 11:07:12;;;;;;;2.03;1.77;;;34.30;69.60;;;;;;5071497;28;20674;-74
2022/09/12 11:10:12;;;;;;;7.32;2.83;;;34.60;61.60;;;;;;5070870;28;20241;-73
2022/09/12 11:13:22;;;;;;;2.50;2.10;;;34.80;61.70;;;;;;5071642;28;20160;-72
2022/09/12 11:16:14;;;;;;;2.03;1.92;;;35.20;55.90;;;;;;5029142;28;20240;-74
2022/09/12 11:18:39;;;;;;;4.93;1.92;;;34.90;50.20;;;;;;5071555;28;20528;-73
2022/09/12 11:21:20;;;;;;;2.05;1.80;;;34.70;50.50;;;;;;5071554;28;20171;-73
2022/09/12 11:24:04;;;;;;;2.75;2.00;;;34.40;52.90;;;;;;5072219;28;20168;-73
2022/09/12 11:26:50;;;;;;;3.95;2.10;;;34.30;54.10;;;;;;5070120;28;20207;-73
2022/09/12 11:29:19;;;;;;;2.10;2.00;;;34.50;54.70;;;;;;5070198;28;20221;-73
2022/09/12 11:32:01;;;;;;;1.90;1.80;;;33.50;54.90;;;;;;5071815;28;20173;-72
2022/09/12 11:34:45;;;;;;;8.75;3.22;;;33.00;59.60;;;;;;5071505;28;20176;-72
2022/09/12 11:37:28;;;;;;;2.20;1.90;;;33.00;66.90;;;;;;5071395;28;20249;-72
2022/09/12 11:39:59;;;;;;;5.72;2.40;;;33.40;79.70;;;;;;5071487;28;20176;-72
2022/09/12 11:42:31;;;;;;;2.20;2.00;;;33.50;67.60;;;;;;5071539;28;20658;-72
2022/09/12 11:45:15;;;;;;;2.25;2.15;;;32.40;59.50;;;;;;5071656;28;20211;-72
2022/09/12 11:47:47;;;;;;;3.85;2.00;;;31.60;76.40;;;;;;4977833;28;20216;-71
2022/09/12 11:50:25;;;;;;;4.15;1.95;;;30.90;99.90;;;;;;4969055;28;20172;-73
2022/09/12 11:52:53;;;;;;;2.80;2.47;;;30.30;99.90;;;;;;4981651;28;20173;-73
2022/09/12 11:55:28;;;;;;;6.85;2.50;;;30.40;99.90;;;;;;5030160;28;20184;-73
2022/09/12 11:57:57;;;;;;;4.38;2.25;;;30.00;99.90;;;;;;5014070;28;20197;-72
2022/09/12 12:00:32;;;;;;;2.45;2.25;;;30.40;99.90;;;;;;5059442;28;20199;-72
2022/09/12 12:03:15;;;;;;;3.00;2.10;;;31.00;99.90;;;;;;5018829;28;20172;-73
2022/09/12 12:06:09;;;;;;;3.00;2.10;;;30.80;99.90;;;;;;4992866;28;20245;-74
2022/09/12 12:08:40;;;;;;;2.03;1.92;;;30.50;99.90;;;;;;4973338;28;20295;-74
2022/09/12 12:11:07;;;;;;;2.72;2.08;;;29.80;99.90;;;;;;5041568;28;20183;-71
2022/09/12 12:13:38;;;;;;;3.65;2.38;;;29.50;99.90;;;;;;5038634;28;20172;-74
2022/09/12 12:16:11;;;;;;;3.97;2.30;;;29.80;99.90;;;;;;5008311;28;20235;-73
2022/09/12 12:18:38;;;;;;;3.30;2.20;;;29.80;99.90;;;;;;4959345;28;20263;-74
2022/09/12 12:21:36;;;;;;;6.25;2.40;;;29.40;99.90;;;;;;5021837;28;20184;-74
2022/09/12 12:24:07;;;;;;;2.58;2.22;;;29.10;99.90;;;;;;4973642;28;20187;-73
2022/09/12 12:26:41;;;;;;;3.58;2.10;;;28.80;99.90;;;;;;5072892;28;20710;-73
2022/09/12 12:29:17;;;;;;;3.15;2.25;;;28.70;99.90;;;;;;5074235;28;20300;-72
2022/09/12 12:32:04;;;;;;;2.50;2.25;;;28.40;99.90;;;;;;5020836;28;20212;-73
2022/09/12 12:34:44;;;;;;;2.53;2.13;;;28.20;99.90;;;;;;5058969;28;20180;-73
2022/09/12 12:37:39;;;;;;;2.88;2.20;;;28.40;99.90;;;;;;4989612;28;20178;-73
2022/09/12 12:40:19;;;;;;;2.60;1.70;;;28.10;99.90;;;;;;5050866;28;20195;-74
2022/09/12 12:42:45;;;;;;;2.20;2.00;;;27.70;99.90;;;;;;4961242;28;20179;-73
2022/09/12 12:45:17;;;;;;;2.75;1.85;;;27.60;99.90;;;;;;5026010;28;20195;-74
2022/09/12 12:47:48;;;;;;;3.33;3.03;;;27.60;99.90;;;;;;5020506;28;20219;-74
2022/09/12 12:50:19;;;;;;;4.82;2.00;;;27.50;1.00;;;;;;5059012;28;20730;-73
2022/09/12 12:53:05;;;;;;;2.60;2.50;;;27.30;1.00;;;;;;5010876;28;20255;-74
2022/09/12 12:55:34;;;;;;;1.92;1.75;;;27.50;1.00;;;;;;5059180;28;20700;-74
2022/09/12 12:58:02;;;;;;;2.50;1.90;;;27.60;1.00;;;;;;5052253;28;20214;-73
2022/09/12 13:00:34;;;;;;;2.55;1.75;;;27.50;1.00;;;;;;5005068;28;20183;-73
2022/09/12 13:03:05;;;;;;;2.22;1.95;;;27.50;1.00;;;;;;5043987;28;20251;-73
2022/09/12 13:05:47;;;;;;;3.47;1.95;;;27.40;1.00;;;;;;5036867;28;20243;-73